Time;durP1;ratioP1;P1;durP2;ratioP2;P2;SDS_P1;SDS_P2;PMS_P1;PMS_P2;Temp;Humidity;BMP_temperature;BMP_pressure;BME280_temperature;BME280_humidity;BME280_pressure;Samples;Min_cycle;Max_cycle;Signal;HPM_P1;HPM_P2
2022/12/30 00:01:24;;;;;;;5.72;2.67;;;;;;;4.41;79.52;98906.38;4982959;28;20137;-60
2022/12/30 00:03:51;;;;;;;3.35;2.60;;;;;;;4.35;79.72;98912.34;4982322;28;20038;-61
2022/12/30 00:06:20;;;;;;;3.92;2.85;;;;;;;4.39;79.61;98909.78;4977862;28;20077;-61
2022/12/30 00:08:51;;;;;;;6.97;1.77;;;;;;;4.34;79.41;98913.19;4980466;28;20836;-61
2022/12/30 00:11:22;;;;;;;3.33;2.65;;;;;;;4.33;79.39;98920.88;4983192;28;20128;-60
2022/12/30 00:33:29;;;;;;;5.30;1.60;;;;;;;4.39;79.35;98868.78;5002374;28;20123;-59
2022/12/30 00:35:58;;;;;;;6.65;1.33;;;;;;;4.34;79.65;98858.50;4997570;28;20046;-59
2022/12/30 00:38:24;;;;;;;4.13;1.00;;;;;;;4.32;79.78;98858.47;5001061;28;20057;-60
2022/12/30 00:43:37;;;;;;;6.47;1.00;;;;;;;4.34;80.16;98836.28;5001337;28;20089;-60
2022/12/30 00:46:04;;;;;;;6.38;0.93;;;;;;;4.40;79.54;98834.59;5003051;28;20531;-58
2022/12/30 00:56:50;;;;;;;3.25;0.63;;;;;;;4.41;79.92;98816.63;4997411;28;20081;-60
2022/12/30 00:59:17;;;;;;;6.03;0.82;;;;;;;4.44;79.61;98815.78;4994769;28;20619;-59
2022/12/30 01:01:44;;;;;;;6.57;1.58;;;;;;;4.43;79.58;98811.53;4994532;28;20045;-59
2022/12/30 01:04:10;;;;;;;7.22;1.25;;;;;;;4.45;79.39;98807.22;4994211;28;20066;-59
2022/12/30 01:06:37;;;;;;;4.78;0.50;;;;;;;4.45;79.87;98817.50;4994014;28;20557;-59
2022/12/30 01:09:04;;;;;;;3.22;1.17;;;;;;;4.45;79.81;98817.50;5001244;28;20050;-60
2022/12/30 01:11:31;;;;;;;4.35;1.30;;;;;;;4.46;80.00;98814.09;4996778;28;20495;-61
2022/12/30 01:13:58;;;;;;;8.15;1.58;;;;;;;4.46;79.88;98808.97;4997182;28;20121;-59
2022/12/30 01:16:25;;;;;;;3.47;0.60;;;;;;;4.51;79.41;98802.13;4990071;28;20042;-61
2022/12/30 01:18:51;;;;;;;6.88;0.98;;;;;;;4.48;79.64;98797.00;5000116;28;20077;-61
2022/12/30 01:21:19;;;;;;;7.53;0.90;;;;;;;4.47;79.48;98796.16;4996772;28;20077;-62
2022/12/30 01:23:47;;;;;;;2.65;0.52;;;;;;;4.46;79.15;98793.59;4994203;28;20046;-61
2022/12/30 01:26:16;;;;;;;1.08;0.38;;;;;;;4.48;79.38;98792.72;4996047;28;20050;-59
2022/12/30 01:28:44;;;;;;;3.53;0.32;;;;;;;4.47;79.61;98800.41;4994987;28;20082;-61
2022/12/30 01:31:13;;;;;;;2.47;0.90;;;;;;;4.53;79.49;98797.88;4998437;28;20072;-60
2022/12/30 01:33:41;;;;;;;2.95;0.90;;;;;;;4.53;79.67;98795.31;4996799;28;20449;-60
2022/12/30 01:36:11;;;;;;;;;;;;;;;4.43;79.17;98778.19;4992710;28;20044;-61
2022/12/30 01:38:40;;;;;;;5.90;0.88;;;;;;;4.47;79.13;98785.03;4989952;28;20361;-62
2022/12/30 01:41:09;;;;;;;1.95;0.50;;;;;;;4.45;79.79;98773.91;4980484;28;20060;-60
2022/12/30 01:43:42;;;;;;;6.88;0.85;;;;;;;4.47;79.40;98774.78;4984672;28;20046;-59
2022/12/30 01:46:16;;;;;;;4.45;0.90;;;;;;;4.47;79.80;98764.50;4978785;28;20046;-61
2022/12/30 01:48:47;;;;;;;4.13;0.68;;;;;;;4.48;79.83;98761.09;4981087;28;20503;-61
2022/12/30 01:51:20;;;;;;;5.10;0.82;;;;;;;4.50;79.95;98754.28;4982248;28;20097;-62
2022/12/30 01:53:50;;;;;;;4.90;0.63;;;;;;;4.55;80.25;98760.25;4982313;28;20151;-61
2022/12/30 01:56:25;;;;;;;2.97;0.95;;;;;;;4.53;80.21;98743.16;4981627;28;20133;-61
2022/12/30 01:58:56;;;;;;;4.72;1.10;;;;;;;4.55;80.51;98747.44;4978579;28;20573;-60
2022/12/30 02:01:22;;;;;;;5.20;0.80;;;;;;;4.57;81.25;98740.59;4979797;28;20829;-61
2022/12/30 02:03:56;;;;;;;8.93;1.98;;;;;;;4.62;80.65;98731.19;4981607;28;20053;-59
2022/12/30 02:06:30;;;;;;;3.75;0.68;;;;;;;4.57;81.22;98725.22;4974063;28;20046;-62
2022/12/30 02:08:58;;;;;;;7.00;1.38;;;;;;;4.56;81.24;98723.47;4979715;28;20078;-61
2022/12/30 02:11:25;;;;;;;10.23;1.08;;;;;;;4.63;81.24;98720.06;4983469;28;20046;-59
2022/12/30 02:13:51;;;;;;;4.50;0.60;;;;;;;4.65;80.94;98711.50;4983957;28;20047;-59
2022/12/30 02:28:16;;;;;;;5.05;0.63;;;;;;;4.80;80.86;98670.47;5079003;27;20741;-59
2022/12/30 02:36:17;;;;;;;3.58;0.75;;;;;;;4.81;82.19;98661.94;5095053;27;20393;-61
2022/12/30 02:44:40;;;;;;;4.20;1.70;;;;;;;4.88;82.52;98648.25;5041492;28;20497;-59
2022/12/30 02:52:41;;;;;;;4.72;1.00;;;;;;;4.99;82.21;98634.50;5006753;28;20465;-61
2022/12/30 02:55:08;;;;;;;6.13;1.38;;;;;;;5.05;82.12;98621.66;4997888;28;20042;-60
2022/12/30 02:57:36;;;;;;;6.45;2.30;;;;;;;5.09;82.81;98614.78;5002979;28;20077;-60
2022/12/30 03:03:56;;;;;;;5.43;2.10;;;;;;;5.16;83.17;98598.53;5000621;28;20066;-60
2022/12/30 03:06:52;;;;;;;5.63;1.85;;;;;;;5.23;82.81;98587.38;4975663;28;20038;-60
2022/12/30 03:12:28;;;;;;;5.90;0.75;;;;;;;5.27;83.02;98571.09;5097600;27;20401;-60
2022/12/30 03:15:00;;;;;;;10.52;2.08;;;;;;;5.30;83.66;98572.78;5041465;28;20049;-61
2022/12/30 03:17:33;;;;;;;6.55;0.88;;;;;;;5.32;82.98;98549.66;5039177;28;20056;-61
2022/12/30 03:20:06;;;;;;;8.38;1.15;;;;;;;5.31;83.79;98566.81;5036969;28;20117;-60
2022/12/30 03:28:11;;;;;;;7.65;0.95;;;;;;;5.36;84.04;98547.09;5041189;28;20052;-60
2022/12/30 03:30:44;;;;;;;8.98;0.73;;;;;;;5.40;84.41;98543.63;5045129;28;20075;-60
2022/12/30 03:33:13;;;;;;;7.03;0.88;;;;;;;5.46;84.76;98547.00;5037574;28;20069;-60
2022/12/30 03:35:47;;;;;;;6.05;1.63;;;;;;;5.49;84.05;98541.88;5035711;28;20052;-59
2022/12/30 03:38:18;;;;;;;5.75;1.30;;;;;;;5.58;83.78;98539.25;5040143;28;20057;-61
2022/12/30 03:40:47;;;;;;;9.88;1.10;;;;;;;5.60;83.34;98539.22;5040138;28;20130;-61
2022/12/30 03:43:15;;;;;;;5.88;1.30;;;;;;;5.65;83.24;98528.06;5043081;28;20126;-60
2022/12/30 03:45:42;;;;;;;5.50;1.42;;;;;;;5.64;83.50;98525.53;5058268;28;22416;-58
2022/12/30 03:48:09;;;;;;;9.93;0.88;;;;;;;5.66;83.72;98516.06;5057306;28;20149;-58
2022/12/30 03:50:35;;;;;;;5.32;1.35;;;;;;;5.67;82.86;98512.63;5041066;28;20145;-59
2022/12/30 03:53:02;;;;;;;5.30;1.38;;;;;;;5.72;83.12;98508.31;5034654;28;20046;-62
2022/12/30 03:55:29;;;;;;;4.57;0.80;;;;;;;5.71;82.99;98510.91;5020121;28;20142;-58
2022/12/30 03:57:55;;;;;;;6.68;0.77;;;;;;;5.75;82.97;98507.44;5022918;28;20049;-62
2022/12/30 04:00:22;;;;;;;8.07;0.93;;;;;;;5.75;82.81;98503.13;5033833;28;20123;-58
2022/12/30 04:02:49;;;;;;;6.60;1.00;;;;;;;5.77;84.29;98490.28;5039916;28;20049;-61
2022/12/30 04:05:16;;;;;;;8.93;1.00;;;;;;;5.79;83.48;98483.44;5035182;28;20120;-62
2022/12/30 04:07:42;;;;;;;4.90;0.95;;;;;;;5.90;82.79;98489.34;5036315;28;20057;-62
2022/12/30 04:10:09;;;;;;;8.85;1.08;;;;;;;5.94;82.82;98484.16;5033186;28;20076;-62
2022/12/30 04:12:35;;;;;;;11.77;1.10;;;;;;;6.03;82.18;98481.50;5036722;28;20447;-59
2022/12/30 04:15:02;;;;;;;8.90;1.42;;;;;;;6.09;83.83;98465.19;5039735;28;20099;-60
2022/12/30 04:17:29;;;;;;;7.15;1.13;;;;;;;6.11;83.50;98459.16;5037235;28;20072;-58
2022/12/30 04:19:56;;;;;;;4.68;0.82;;;;;;;6.16;83.32;98447.16;5037064;28;20072;-61
2022/12/30 04:22:22;;;;;;;7.45;1.45;;;;;;;6.22;83.01;98435.06;5022667;28;20068;-61
2022/12/30 04:24:49;;;;;;;2.85;0.82;;;;;;;6.21;82.77;98417.97;5013154;28;20088;-62
2022/12/30 04:27:23;;;;;;;9.38;0.82;;;;;;;6.30;83.27;98422.97;5023118;28;20057;-61
2022/12/30 04:29:49;;;;;;;7.43;0.98;;;;;;;6.33;82.95;98415.25;5006347;28;20058;-60
2022/12/30 04:32:16;;;;;;;7.95;1.20;;;;;;;6.36;82.82;98397.22;5005823;28;20521;-62
2022/12/30 04:34:42;;;;;;;8.15;1.20;;;;;;;6.38;83.15;98385.16;5019277;28;20046;-59
2022/12/30 04:37:09;;;;;;;6.40;0.93;;;;;;;6.40;82.39;98383.44;5020973;28;20050;-58
2022/12/30 04:39:36;;;;;;;6.30;0.73;;;;;;;6.38;81.94;98364.59;5022301;28;20080;-62
2022/12/30 04:42:03;;;;;;;8.57;1.10;;;;;;;6.40;81.74;98362.88;5021963;28;20041;-63
2022/12/30 04:44:29;;;;;;;8.27;2.15;;;;;;;6.42;81.39;98370.56;5007553;28;20049;-60
2022/12/30 04:46:56;;;;;;;6.95;0.80;;;;;;;6.46;80.89;98366.22;5008631;28;20041;-61
2022/12/30 04:49:23;;;;;;;10.48;0.95;;;;;;;6.46;82.38;98361.06;5013654;28;20057;-60
2022/12/30 04:51:49;;;;;;;6.10;0.55;;;;;;;6.43;81.23;98352.50;5022063;28;20049;-61
2022/12/30 04:54:16;;;;;;;9.55;1.75;;;;;;;6.54;81.15;98348.97;5024868;28;20049;-59
2022/12/30 04:56:43;;;;;;;2.03;0.75;;;;;;;6.56;80.29;98357.53;5021543;28;20053;-60
2022/12/30 04:59:10;;;;;;;6.63;1.30;;;;;;;6.59;80.45;98351.47;5016642;28;20042;-59
2022/12/30 05:01:36;;;;;;;5.22;0.80;;;;;;;6.62;81.74;98341.16;5002155;28;20057;-61
2022/12/30 05:04:03;;;;;;;12.35;2.22;;;;;;;6.62;81.87;98334.25;5012569;28;20782;-61
2022/12/30 05:06:30;;;;;;;8.20;1.17;;;;;;;6.66;80.14;98338.50;5004634;28;20045;-60
2022/12/30 05:08:57;;;;;;;8.80;0.75;;;;;;;6.73;80.51;98328.13;5001776;28;20085;-59
2022/12/30 05:11:23;;;;;;;5.90;0.88;;;;;;;6.74;80.35;98322.09;5018675;28;20053;-61
2022/12/30 05:13:50;;;;;;;5.75;0.55;;;;;;;6.77;81.40;98314.34;5022261;28;20052;-62
2022/12/30 05:16:16;;;;;;;8.38;1.52;;;;;;;6.78;79.76;98313.44;5022546;28;20535;-59
2022/12/30 05:18:43;;;;;;;2.45;0.93;;;;;;;6.80;79.89;98304.81;5023408;28;20045;-59
2022/12/30 05:21:10;;;;;;;9.48;1.58;;;;;;;6.82;80.10;98297.09;5022681;28;20687;-60
2022/12/30 05:26:23;;;;;;;9.13;1.42;;;;;;;6.83;79.92;98283.38;5003935;28;20045;-60
2022/12/30 05:28:50;;;;;;;4.82;0.73;;;;;;;6.77;79.64;98263.72;5007994;28;20423;-59
2022/12/30 05:31:18;;;;;;;3.30;1.15;;;;;;;6.78;81.01;98261.97;5011949;28;20606;-60
2022/12/30 05:33:46;;;;;;;4.97;1.17;;;;;;;6.80;80.30;98265.41;5019608;28;20097;-61
2022/12/30 05:36:13;;;;;;;7.57;1.10;;;;;;;6.82;80.01;98246.47;5005468;28;20116;-61
2022/12/30 05:38:40;;;;;;;9.35;0.98;;;;;;;6.83;79.00;98242.19;5005889;28;20050;-60
2022/12/30 05:41:08;;;;;;;9.20;0.75;;;;;;;6.90;79.15;98223.19;5015746;28;20073;-61
2022/12/30 05:43:43;;;;;;;5.03;0.98;;;;;;;6.86;80.01;98236.97;5026326;28;20128;-60
2022/12/30 05:46:10;;;;;;;2.25;0.35;;;;;;;6.89;80.60;98230.94;5022728;28;20045;-61
2022/12/30 05:48:37;;;;;;;4.72;1.45;;;;;;;6.87;79.04;98222.38;5025255;28;20052;-62
2022/12/30 05:51:04;;;;;;;3.33;0.73;;;;;;;6.86;79.82;98213.81;5022364;28;20068;-58
2022/12/30 05:53:31;;;;;;;6.20;1.10;;;;;;;6.87;79.28;98201.81;5006817;28;20042;-60
2022/12/30 05:55:58;;;;;;;4.80;0.73;;;;;;;6.92;79.64;98205.13;5004323;28;20043;-62
2022/12/30 05:58:25;;;;;;;7.47;1.25;;;;;;;6.94;79.00;98198.25;5014528;28;20575;-61
2022/12/30 06:00:52;;;;;;;7.22;0.98;;;;;;;6.99;80.23;98198.19;5021616;28;20511;-61
2022/12/30 06:03:19;;;;;;;6.85;0.88;;;;;;;6.97;78.94;98187.03;5025489;28;20057;-58
2022/12/30 06:05:46;;;;;;;10.38;1.55;;;;;;;6.96;79.89;98186.22;5025828;28;21213;-61
2022/12/30 06:08:12;;;;;;;6.55;1.23;;;;;;;6.98;79.04;98183.59;5022283;28;20056;-60
2022/12/30 06:10:39;;;;;;;4.28;0.85;;;;;;;6.99;79.75;98164.72;5021747;28;20091;-61
2022/12/30 06:13:06;;;;;;;5.63;0.40;;;;;;;7.01;79.48;98161.22;5024087;28;20464;-64
2022/12/30 06:15:32;;;;;;;9.00;1.33;;;;;;;7.00;79.41;98156.09;5022560;28;20080;-61
2022/12/30 06:17:59;;;;;;;9.15;0.90;;;;;;;7.06;78.69;98140.56;5007409;28;20459;-61
2022/12/30 06:20:26;;;;;;;4.88;1.02;;;;;;;7.06;79.71;98140.56;5021456;28;20107;-60
2022/12/30 06:22:53;;;;;;;2.80;0.73;;;;;;;7.04;78.63;98129.44;5010398;28;20042;-60
2022/12/30 06:25:19;;;;;;;7.10;0.98;;;;;;;7.04;79.59;98114.84;5002012;28;20092;-62
2022/12/30 06:27:46;;;;;;;4.25;0.57;;;;;;;7.05;78.99;98110.53;5005292;28;20387;-60
2022/12/30 06:30:13;;;;;;;4.88;1.00;;;;;;;7.03;79.43;98102.00;5021675;28;20070;-62
2022/12/30 06:32:39;;;;;;;6.47;1.05;;;;;;;7.03;80.00;98100.25;5021144;28;20069;-61
2022/12/30 06:35:07;;;;;;;4.80;1.05;;;;;;;7.07;79.07;98094.16;5019527;28;20048;-60
2022/12/30 06:37:34;;;;;;;8.18;1.52;;;;;;;7.06;78.53;98087.31;5010500;28;20049;-61
2022/12/30 06:40:01;;;;;;;6.50;1.40;;;;;;;7.09;79.38;98083.00;5006860;28;20041;-60
2022/12/30 06:42:27;;;;;;;7.93;1.27;;;;;;;7.04;78.77;98085.66;5022158;28;20041;-61
2022/12/30 06:44:54;;;;;;;3.70;0.90;;;;;;;7.06;78.41;98071.06;5023013;28;20081;-60
2022/12/30 06:47:21;;;;;;;4.95;0.98;;;;;;;7.09;79.15;98063.25;5007135;28;20042;-59
2022/12/30 06:49:48;;;;;;;3.95;1.23;;;;;;;7.11;78.75;98056.34;5014913;28;20041;-61
2022/12/30 06:52:15;;;;;;;3.45;0.95;;;;;;;7.12;79.95;98058.03;5022488;28;20533;-62
2022/12/30 06:54:42;;;;;;;10.68;1.05;;;;;;;7.11;79.83;98053.78;5021172;28;20091;-61
2022/12/30 06:57:09;;;;;;;3.58;0.63;;;;;;;7.19;79.20;98039.00;5022809;28;20111;-59
2022/12/30 06:59:35;;;;;;;3.38;0.93;;;;;;;7.13;79.22;98023.69;5024220;28;20041;-61
2022/12/30 07:02:02;;;;;;;7.53;0.82;;;;;;;7.18;77.89;98026.16;5022909;28;20409;-60
2022/12/30 07:04:29;;;;;;;3.88;1.48;;;;;;;7.19;79.69;98028.72;5020388;28;20049;-60
2022/12/30 07:06:55;;;;;;;5.55;1.00;;;;;;;7.23;78.32;98034.63;5020754;28;20045;-60
2022/12/30 07:09:22;;;;;;;4.15;0.82;;;;;;;7.25;79.31;98032.03;5023490;28;20107;-58
2022/12/30 07:11:48;;;;;;;4.03;1.15;;;;;;;7.30;79.06;98014.75;5020266;28;20053;-60
2022/12/30 07:14:15;;;;;;;2.80;0.43;;;;;;;7.25;78.51;98024.28;5022915;28;20081;-60
2022/12/30 07:16:42;;;;;;;4.55;1.00;;;;;;;7.30;79.47;98015.59;5018357;28;20522;-60
2022/12/30 07:19:08;;;;;;;9.27;1.27;;;;;;;7.34;78.18;98008.66;5020465;28;20045;-62
2022/12/30 07:21:35;;;;;;;4.40;1.00;;;;;;;7.30;78.39;98009.63;5021369;28;20053;-63
2022/12/30 07:24:02;;;;;;;7.90;1.02;;;;;;;7.32;78.47;97982.94;5020528;28;20567;-62
2022/12/30 07:26:29;;;;;;;9.45;1.27;;;;;;;7.32;79.13;97971.78;5019546;28;20141;-62
2022/12/30 07:28:56;;;;;;;5.13;0.85;;;;;;;7.35;78.62;97976.88;5020960;28;20084;-60
2022/12/30 07:31:23;;;;;;;2.95;0.90;;;;;;;7.36;78.37;97963.09;5018440;28;20053;-62
2022/12/30 07:33:49;;;;;;;6.10;1.08;;;;;;;7.34;78.16;97939.13;5018361;28;20053;-63
2022/12/30 07:36:16;;;;;;;11.35;1.45;;;;;;;7.38;78.62;97940.75;5002085;28;20061;-59
2022/12/30 07:38:43;;;;;;;2.78;0.93;;;;;;;7.41;79.42;97945.81;5002718;28;20069;-61
2022/12/30 07:41:11;;;;;;;7.75;0.90;;;;;;;7.39;79.34;97936.41;5010903;28;20038;-60
2022/12/30 07:43:38;;;;;;;2.30;0.70;;;;;;;7.43;78.47;97930.34;5009337;28;20414;-61
2022/12/30 07:46:06;;;;;;;4.43;0.98;;;;;;;7.45;79.08;97906.22;5009742;28;20065;-59
2022/12/30 07:48:34;;;;;;;4.40;1.00;;;;;;;7.50;78.61;97908.69;5020313;28;20495;-61
2022/12/30 07:51:09;;;;;;;5.75;1.60;;;;;;;7.47;78.51;97903.63;5018431;28;20038;-62
2022/12/30 07:53:36;;;;;;;5.68;0.60;;;;;;;7.54;78.87;97896.59;5018065;28;20148;-63
2022/12/30 07:56:04;;;;;;;1.95;0.43;;;;;;;7.53;80.12;97884.59;5003985;28;20104;-62
2022/12/30 07:58:31;;;;;;;5.10;0.88;;;;;;;7.59;78.57;97881.84;5005316;28;20093;-63
2022/12/30 08:01:07;;;;;;;3.78;0.80;;;;;;;7.58;79.25;97875.00;5008880;28;20123;-61
2022/12/30 08:03:33;;;;;;;1.50;0.75;;;;;;;7.54;79.42;97878.56;5020527;28;20044;-62
2022/12/30 08:06:06;;;;;;;6.88;1.33;;;;;;;7.61;80.09;97869.78;5023373;28;20049;-60
2022/12/30 08:08:33;;;;;;;5.95;1.55;;;;;;;7.62;79.51;97856.00;5022851;28;20038;-61
2022/12/30 08:11:01;;;;;;;4.60;1.65;;;;;;;7.62;79.45;97850.00;5020538;28;20065;-61
2022/12/30 08:13:31;;;;;;;2.90;0.80;;;;;;;7.66;79.91;97849.03;5026466;28;20140;-62
2022/12/30 08:15:57;;;;;;;8.40;1.30;;;;;;;7.66;79.94;97842.16;5017039;28;20575;-61
2022/12/30 08:18:24;;;;;;;6.28;1.00;;;;;;;7.68;80.30;97837.81;5005064;28;20152;-62
2022/12/30 08:21:12;;;;;;;7.40;0.88;;;;;;;7.69;79.65;97821.47;5005085;28;20632;-63
2022/12/30 08:23:39;;;;;;;4.90;1.35;;;;;;;7.66;81.54;97808.66;5020129;28;20053;-59
2022/12/30 08:26:09;;;;;;;5.72;1.35;;;;;;;7.68;81.42;97799.16;5007303;28;20053;-63
2022/12/30 08:28:36;;;;;;;3.88;1.58;;;;;;;7.64;81.76;97789.84;5004413;28;20615;-63
2022/12/30 08:31:06;;;;;;;5.03;0.77;;;;;;;7.66;81.27;97780.31;5001852;28;20046;-62
2022/12/30 08:33:33;;;;;;;5.10;1.42;;;;;;;7.60;81.53;97775.31;5006966;28;20042;-62
2022/12/30 08:36:03;;;;;;;6.07;1.20;;;;;;;7.64;82.51;97766.66;5021919;28;20045;-60
2022/12/30 08:38:32;;;;;;;3.50;1.50;;;;;;;7.65;82.65;97746.88;5022597;28;20049;-60
2022/12/30 08:41:04;;;;;;;4.95;1.58;;;;;;;7.66;81.29;97744.25;5022843;28;20166;-62
2022/12/30 08:43:31;;;;;;;2.63;0.80;;;;;;;7.65;81.50;97740.00;5019138;28;20464;-61
2022/12/30 08:45:58;;;;;;;4.20;1.25;;;;;;;7.64;82.76;97720.28;5022832;28;21133;-63
2022/12/30 08:48:25;;;;;;;5.38;0.80;;;;;;;7.64;82.03;97717.69;5023194;28;20073;-61
2022/12/30 08:50:53;;;;;;;8.35;1.48;;;;;;;7.67;81.90;97714.19;5003307;28;20050;-62
2022/12/30 08:53:24;;;;;;;5.28;0.80;;;;;;;7.67;81.92;97699.56;5017507;28;20095;-62
2022/12/30 08:58:36;;;;;;;5.63;2.13;;;;;;;7.60;83.13;97682.56;5044227;27;20394;-60
2022/12/30 09:01:09;;;;;;;6.07;1.77;;;;;;;7.64;82.83;97686.78;5000674;28;20046;-60
2022/12/30 09:03:37;;;;;;;5.22;2.15;;;;;;;7.65;83.61;97664.41;5003419;28;20414;-60
2022/12/30 09:06:05;;;;;;;8.50;2.15;;;;;;;7.62;83.28;97667.94;5001521;28;20108;-60
2022/12/30 09:08:32;;;;;;;7.97;2.40;;;;;;;7.63;83.42;97661.88;4998632;28;20147;-60
2022/12/30 09:11:04;;;;;;;2.88;1.92;;;;;;;7.63;83.27;97661.06;4994711;28;20077;-60
2022/12/30 09:13:31;;;;;;;8.77;2.13;;;;;;;7.63;84.45;97650.75;4999074;28;20513;-61
2022/12/30 09:15:58;;;;;;;6.00;2.13;;;;;;;7.62;84.14;97652.47;4997468;28;20049;-61
2022/12/30 09:18:25;;;;;;;4.20;2.50;;;;;;;7.66;83.74;97636.03;4995135;28;20072;-60
2022/12/30 09:20:51;;;;;;;2.90;1.58;;;;;;;7.64;83.23;97627.53;4997078;28;20061;-60
2022/12/30 09:23:18;;;;;;;3.33;1.88;;;;;;;7.64;83.89;97632.69;4997120;28;20046;-60
2022/12/30 09:25:45;;;;;;;3.05;0.98;;;;;;;7.62;84.28;97612.97;4997868;28;20483;-60
2022/12/30 09:28:12;;;;;;;4.25;2.00;;;;;;;7.64;83.73;97588.88;4998523;28;20053;-60
2022/12/30 09:30:39;;;;;;;3.22;1.65;;;;;;;7.60;84.32;97589.84;4996677;28;20418;-60
2022/12/30 09:33:06;;;;;;;7.57;2.63;;;;;;;7.64;83.81;97586.31;4999494;28;20050;-59
2022/12/30 09:35:33;;;;;;;1.80;1.50;;;;;;;7.65;84.89;97564.78;4996052;28;20069;-60
2022/12/30 09:37:59;;;;;;;5.90;1.80;;;;;;;7.70;84.67;97555.19;4998354;28;20123;-60
2022/12/30 09:43:21;;;;;;;3.03;1.00;;;;;;;7.66;85.07;97558.75;5023758;28;20414;-60
2022/12/30 09:46:28;;;;;;;1.73;0.32;;;;;;;7.63;84.82;97553.69;4994725;28;20070;-60
2022/12/30 09:49:00;;;;;;;1.73;0.73;;;;;;;7.68;84.16;97551.81;4994421;28;20058;-61
2022/12/30 09:51:35;;;;;;;4.20;0.68;;;;;;;7.71;85.21;97536.25;4993887;28;20756;-60
2022/12/30 09:54:09;;;;;;;3.53;0.80;;;;;;;7.74;84.92;97519.88;4994827;28;20120;-60
2022/12/30 09:56:39;;;;;;;0.90;0.40;;;;;;;7.73;84.97;97502.69;4993314;28;20062;-60
2022/12/30 09:59:10;;;;;;;;;;;;;;;7.74;85.44;97508.72;4997343;28;20076;-61
2022/12/30 10:01:44;;;;;;;5.70;0.60;;;;;;;7.74;85.10;97494.09;4989466;28;19965;-61
2022/12/30 10:04:17;;;;;;;0.82;0.50;;;;;;;7.78;84.42;97495.69;4989330;28;20875;-61
2022/12/30 10:07:03;;;;;;;2.60;0.30;;;;;;;7.84;85.24;97479.19;4994056;28;20050;-61
2022/12/30 10:09:44;;;;;;;1.52;0.50;;;;;;;7.84;84.63;97481.75;4992583;28;20137;-61
2022/12/30 10:26:11;;;;;;;1.08;0.63;;;;;;;7.75;86.90;97454.56;5115935;27;20415;-60
2022/12/30 10:28:45;;;;;;;2.20;1.10;;;;;;;7.76;86.63;97439.91;5082126;28;20040;-61
2022/12/30 10:31:18;;;;;;;3.38;1.95;;;;;;;7.77;86.70;97426.16;5086277;28;20051;-61
2022/12/30 10:33:48;;;;;;;1.33;1.23;;;;;;;7.81;86.30;97428.56;5081892;28;20052;-61
2022/12/30 10:36:22;;;;;;;1.90;1.67;;;;;;;7.82;86.10;97413.94;5083339;28;20103;-61
2022/12/30 10:38:57;;;;;;;3.47;1.45;;;;;;;7.81;87.45;97413.09;5083049;28;20071;-61
2022/12/30 10:41:38;;;;;;;1.38;1.23;;;;;;;7.81;86.59;97415.69;5078340;28;20139;-60
2022/12/30 10:44:16;;;;;;;1.27;1.13;;;;;;;7.86;86.51;97382.03;5084064;28;20048;-60
2022/12/30 10:52:34;;;;;;;1.25;1.25;;;;;;;8.03;86.67;97336.75;5091213;27;20417;-60
2022/12/30 10:57:58;;;;;;;2.58;0.57;;;;;;;8.06;86.48;97319.47;5038399;27;20396;-60
2022/12/30 11:00:25;;;;;;;1.27;0.55;;;;;;;8.09;87.07;97323.66;5009044;28;20049;-61
2022/12/30 11:02:56;;;;;;;2.13;0.90;;;;;;;8.14;86.55;97306.28;5002615;28;20444;-60
2022/12/30 11:05:39;;;;;;;1.02;0.30;;;;;;;8.16;86.48;97319.97;5003389;28;20104;-61
2022/12/30 11:08:20;;;;;;;1.60;0.45;;;;;;;8.21;86.06;97328.38;5002948;28;20128;-60
2022/12/30 11:11:05;;;;;;;1.00;0.38;;;;;;;8.26;86.30;97289.53;4995904;28;20053;-61
2022/12/30 11:16:26;;;;;;;0.10;0.10;;;;;;;8.28;86.68;97268.84;4991875;28;20042;-60
2022/12/30 11:18:55;;;;;;;1.00;0.52;;;;;;;8.28;87.74;97261.09;5004186;28;20485;-60
2022/12/30 11:21:24;;;;;;;0.65;0.20;;;;;;;8.28;88.19;97258.53;4998334;28;20528;-60
2022/12/30 11:23:55;;;;;;;2.58;0.30;;;;;;;8.31;87.65;97250.66;4998698;28;20113;-61
2022/12/30 11:26:24;;;;;;;0.20;0.20;;;;;;;8.35;88.09;97244.50;5000395;28;20053;-61
2022/12/30 11:28:56;;;;;;;0.40;0.40;;;;;;;8.38;87.98;97251.28;4996012;28;20053;-61
2022/12/30 11:31:33;;;;;;;0.90;0.40;;;;;;;8.43;88.24;97245.03;5001964;28;20045;-61
2022/12/30 11:34:02;;;;;;;1.50;0.30;;;;;;;8.48;88.04;97243.09;5001363;28;20140;-60
2022/12/30 11:39:32;;;;;;;2.05;0.52;;;;;;;8.55;87.68;97230.00;5133337;27;20412;-61
2022/12/30 11:42:01;;;;;;;0.43;0.30;;;;;;;8.55;88.35;97217.09;5093216;28;20089;-61
2022/12/30 11:44:31;;;;;;;0.35;0.32;;;;;;;8.62;87.86;97203.06;5077189;28;20044;-60
2022/12/30 11:47:03;;;;;;;0.35;0.35;;;;;;;8.64;87.54;97190.09;5080994;28;20055;-61
2022/12/30 11:52:18;;;;;;;1.63;0.10;;;;;;;8.79;87.54;97170.56;5078306;27;20405;-61
2022/12/30 11:54:50;;;;;;;0.40;0.30;;;;;;;8.92;87.10;97179.44;5053944;28;20206;-60
2022/12/30 11:57:30;;;;;;;0.50;0.15;;;;;;;8.96;87.02;97160.38;5104064;28;20047;-60
2022/12/30 12:00:24;;;;;;;0.22;0.15;;;;;;;9.05;87.37;97184.09;5098172;28;20178;-60
2022/12/30 12:03:00;;;;;;;0.47;0.13;;;;;;;9.11;87.33;97176.06;5100199;28;20509;-60
2022/12/30 12:05:39;;;;;;;2.33;0.43;;;;;;;9.20;87.72;97188.63;5099338;28;20047;-60
2022/12/30 12:08:29;;;;;;;0.55;0.20;;;;;;;9.27;86.60;97184.00;5097163;28;20131;-60
2022/12/30 12:10:58;;;;;;;0.30;0.20;;;;;;;9.40;87.05;97194.66;5093095;28;20158;-60
2022/12/30 12:16:06;;;;;;;0.30;0.30;;;;;;;9.54;86.71;97200.94;5111239;27;20419;-61
2022/12/30 12:21:28;;;;;;;1.35;1.25;;;;;;;9.65;86.23;97178.03;5045048;28;20399;-61
2022/12/30 12:24:21;;;;;;;1.50;1.40;;;;;;;9.71;86.45;97195.88;4971228;28;20128;-61
2022/12/30 12:29:28;;;;;;;2.15;1.20;;;;;;;10.12;84.74;97194.88;5023507;27;20420;-61
2022/12/30 12:35:44;;;;;;;2.22;0.77;;;;;;;10.00;85.78;97201.44;5054414;27;21041;-60
2022/12/30 12:38:38;;;;;;;3.00;0.77;;;;;;;10.06;85.72;97207.25;5048637;28;20473;-61
2022/12/30 12:41:35;;;;;;;1.63;1.27;;;;;;;10.08;86.06;97210.59;5049123;28;20068;-61
2022/12/30 13:00:05;;;;;;;2.45;0.73;;;;;;;10.49;84.58;97250.97;4998932;27;20434;-61
2022/12/30 13:05:41;;;;;;;2.22;2.03;;;;;;;10.62;85.12;97259.84;5047184;27;20409;-62
2022/12/30 13:08:37;;;;;;;2.25;1.20;;;;;;;10.64;84.48;97264.97;5038942;28;20064;-61
2022/12/30 13:16:55;;;;;;;2.00;0.60;;;;;;;10.95;84.91;97284.19;5096882;27;20397;-61
2022/12/30 13:19:29;;;;;;;1.42;0.70;;;;;;;10.99;84.90;97296.06;5058223;28;20090;-61
2022/12/30 13:21:59;;;;;;;0.70;0.52;;;;;;;11.01;84.19;97299.41;5058291;28;20048;-61
2022/12/30 13:24:34;;;;;;;1.75;0.75;;;;;;;11.06;83.94;97309.56;5060635;28;20633;-62
2022/12/30 13:27:05;;;;;;;0.90;0.55;;;;;;;11.13;84.56;97317.84;5061489;28;20044;-60
2022/12/30 13:29:35;;;;;;;1.77;0.73;;;;;;;11.15;83.92;97318.63;5058939;28;20072;-61
2022/12/30 13:32:15;;;;;;;0.60;0.30;;;;;;;11.18;83.77;97321.91;5044881;28;20045;-61
2022/12/30 13:34:52;;;;;;;0.30;0.20;;;;;;;11.23;83.49;97328.59;5044499;28;20065;-61
2022/12/30 13:37:35;;;;;;;0.68;0.50;;;;;;;11.23;83.68;97339.81;5056588;28;20132;-61
2022/12/30 13:40:05;;;;;;;;;;;;;;;11.18;83.00;97345.22;5062509;28;20052;-61
2022/12/30 13:45:21;;;;;;;1.27;0.68;;;;;;;11.31;82.48;97345.44;5055064;28;21100;-62
2022/12/30 13:47:55;;;;;;;0.80;0.80;;;;;;;11.30;83.69;97340.34;5019274;28;20057;-61
2022/12/30 13:50:26;;;;;;;1.30;1.15;;;;;;;11.35;83.05;97347.91;5022113;28;20129;-61
2022/12/30 13:52:56;;;;;;;2.13;0.93;;;;;;;11.38;82.49;97363.31;5015766;28;20091;-61
2022/12/30 13:58:31;;;;;;;2.13;1.92;;;;;;;11.38;82.20;97365.91;5046197;28;20407;-60
2022/12/30 14:01:24;;;;;;;2.17;1.67;;;;;;;11.43;82.67;97361.31;5020590;28;20040;-62
2022/12/30 14:09:28;;;;;;;3.60;2.30;;;;;;;11.78;82.02;97366.47;5040336;28;20421;-61
2022/12/30 14:12:32;;;;;;;2.03;1.77;;;;;;;11.57;82.23;97377.03;4999927;28;20158;-62
2022/12/30 14:15:01;;;;;;;1.95;1.20;;;;;;;11.60;82.57;97383.81;4992350;28;20050;-57
2022/12/30 14:17:32;;;;;;;2.03;1.67;;;;;;;11.62;81.77;97386.31;4990770;28;20077;-61
2022/12/30 14:20:20;;;;;;;2.60;2.40;;;;;;;11.60;82.37;97390.72;4994221;28;20054;-61
2022/12/30 14:25:32;;;;;;;3.10;0.80;;;;;;;11.62;82.38;97412.25;5035679;27;20398;-62
2022/12/30 14:28:02;;;;;;;1.90;0.65;;;;;;;11.64;81.67;97418.19;5023491;28;20081;-61
2022/12/30 14:30:39;;;;;;;1.73;0.88;;;;;;;11.62;81.80;97417.44;5018761;28;20132;-61
2022/12/30 14:41:15;;;;;;;1.70;1.40;;;;;;;11.64;81.55;97441.50;5029099;27;20406;-62
2022/12/30 14:43:52;;;;;;;6.32;2.15;;;;;;;11.62;81.64;97456.31;5000306;28;20061;-62
2022/12/30 14:57:28;;;;;;;2.08;1.88;;;;;;;11.68;81.68;97507.84;5053833;28;20410;-60